Time;durP1;ratioP1;P1;durP2;ratioP2;P2;SDS_P1;SDS_P2;PMS_P1;PMS_P2;Temp;Humidity;BMP_temperature;BMP_pressure;BME280_temperature;BME280_humidity;BME280_pressure;Samples;Min_cycle;Max_cycle;Signal;HPM_P1;HPM_P2
2024/04/13 00:00:30;;;;;;;5.18;4.15;;;12.00;70.60;;;;;;5398401;26;20540;-60
2024/04/13 00:02:55;;;;;;;5.50;3.83;;;12.00;70.60;;;;;;5400620;26;20002;-63
2024/04/13 00:05:21;;;;;;;5.78;3.92;;;11.90;70.60;;;;;;5390632;26;19999;-62
2024/04/13 00:07:46;;;;;;;4.50;3.95;;;11.90;70.70;;;;;;5394241;26;20003;-63
2024/04/13 00:10:12;;;;;;;8.82;4.20;;;11.90;70.70;;;;;;5397415;26;20014;-62
2024/04/13 00:12:37;;;;;;;4.40;4.00;;;11.80;70.70;;;;;;5394109;26;20093;-61
2024/04/13 00:15:04;;;;;;;5.60;4.10;;;11.80;70.90;;;;;;5399276;26;20007;-64
2024/04/13 00:17:31;;;;;;;5.82;4.03;;;11.70;70.90;;;;;;5404124;26;20072;-62
2024/04/13 00:19:57;;;;;;;4.50;3.83;;;11.70;71.80;;;;;;5402828;26;20549;-62
2024/04/13 00:22:23;;;;;;;5.82;4.45;;;11.70;71.10;;;;;;5397022;26;19996;-63
2024/04/13 00:24:48;;;;;;;7.22;4.70;;;11.70;71.20;;;;;;5394688;26;20043;-62
2024/04/13 00:27:14;;;;;;;7.65;4.03;;;11.70;71.30;;;;;;5406998;26;20007;-63
2024/04/13 00:29:41;;;;;;;5.85;4.07;;;11.60;71.30;;;;;;5400461;26;20023;-62
2024/04/13 00:32:08;;;;;;;6.25;4.30;;;11.60;71.40;;;;;;5393074;26;20027;-62
2024/04/13 00:34:34;;;;;;;6.43;4.30;;;11.50;71.40;;;;;;5395049;26;20073;-62
2024/04/13 00:37:03;;;;;;;7.25;4.03;;;11.50;71.60;;;;;;5398567;26;20418;-62
2024/04/13 00:39:29;;;;;;;6.18;4.05;;;11.50;71.70;;;;;;5393856;26;20580;-63
2024/04/13 00:41:55;;;;;;;9.32;5.18;;;11.50;71.70;;;;;;5394448;26;19996;-63
2024/04/13 00:44:21;;;;;;;6.15;5.10;;;11.40;71.80;;;;;;5396512;26;20011;-60
2024/04/13 00:46:47;;;;;;;6.60;5.18;;;11.40;72.00;;;;;;5396069;26;19996;-62
2024/04/13 00:49:14;;;;;;;5.57;4.75;;;11.40;72.10;;;;;;5400190;26;19996;-62
2024/04/13 00:51:45;;;;;;;5.10;4.60;;;11.30;72.10;;;;;;5401236;26;19992;-62
2024/04/13 00:54:18;;;;;;;5.47;4.38;;;11.30;72.40;;;;;;5398905;26;19999;-61
2024/04/13 00:56:53;;;;;;;5.32;4.40;;;11.30;72.30;;;;;;5392456;26;20003;-62
2024/04/13 00:59:22;;;;;;;8.35;4.30;;;11.20;72.60;;;;;;5398446;26;19999;-61
2024/04/13 01:01:48;;;;;;;5.55;4.32;;;11.20;73.10;;;;;;5400900;26;20000;-62
2024/04/13 01:04:17;;;;;;;7.28;4.47;;;11.20;72.40;;;;;;5406355;26;20003;-62
2024/04/13 01:06:44;;;;;;;5.82;4.20;;;11.20;72.60;;;;;;5408147;26;19996;-62
2024/04/13 01:09:10;;;;;;;4.95;4.45;;;11.10;72.60;;;;;;5397529;26;20443;-63
2024/04/13 01:11:36;;;;;;;5.35;3.97;;;11.10;73.60;;;;;;5408288;26;20335;-63
2024/04/13 01:14:02;;;;;;;6.68;4.50;;;11.00;72.80;;;;;;5403899;26;20011;-61
2024/04/13 01:16:29;;;;;;;4.70;4.30;;;11.00;73.00;;;;;;5412874;26;20007;-61
2024/04/13 01:18:54;;;;;;;6.18;4.50;;;11.00;73.00;;;;;;5399659;26;20534;-62
2024/04/13 01:21:20;;;;;;;5.45;4.35;;;11.00;73.10;;;;;;5405470;26;20011;-63
2024/04/13 01:23:52;;;;;;;5.25;4.30;;;11.00;73.20;;;;;;5399174;26;20012;-61
2024/04/13 01:26:18;;;;;;;4.50;3.95;;;10.90;73.30;;;;;;5399628;26;20046;-62
2024/04/13 01:28:44;;;;;;;4.88;4.10;;;10.90;73.20;;;;;;5399355;26;20018;-62
2024/04/13 01:31:10;;;;;;;5.65;4.07;;;10.90;73.20;;;;;;5408343;26;20011;-63
2024/04/13 01:33:36;;;;;;;4.93;4.20;;;10.90;73.30;;;;;;5402639;26;20035;-62
2024/04/13 01:36:02;;;;;;;5.38;4.03;;;10.80;73.40;;;;;;5404357;26;20544;-62
2024/04/13 01:38:27;;;;;;;5.95;3.95;;;10.80;73.40;;;;;;5403829;26;19992;-62
2024/04/13 01:40:53;;;;;;;6.00;4.10;;;10.80;73.50;;;;;;5396217;26;20015;-63
2024/04/13 01:43:19;;;;;;;5.30;4.60;;;10.70;73.40;;;;;;5402259;26;20090;-63
2024/04/13 01:45:45;;;;;;;6.40;4.32;;;10.70;73.50;;;;;;5400357;26;19995;-61
2024/04/13 01:48:10;;;;;;;6.93;4.40;;;10.70;73.60;;;;;;5402177;26;20006;-61
2024/04/13 01:50:36;;;;;;;7.80;4.55;;;10.70;73.70;;;;;;5403080;26;20003;-62
2024/04/13 01:53:02;;;;;;;6.15;4.40;;;10.60;73.70;;;;;;5395661;26;20019;-62
2024/04/13 01:55:27;;;;;;;6.32;4.20;;;10.60;73.80;;;;;;5404615;26;19999;-63
2024/04/13 01:57:53;;;;;;;4.43;3.95;;;10.60;73.90;;;;;;5401206;26;20012;-62
2024/04/13 02:00:20;;;;;;;8.50;4.68;;;10.60;73.90;;;;;;5404032;26;20410;-61
2024/04/13 02:02:46;;;;;;;4.28;3.88;;;10.50;73.90;;;;;;5399965;26;20004;-61
2024/04/13 02:05:11;;;;;;;6.90;4.30;;;10.50;73.90;;;;;;5399317;26;20453;-63
2024/04/13 02:07:37;;;;;;;6.05;4.32;;;10.50;74.00;;;;;;5399615;26;20006;-63
2024/04/13 02:10:03;;;;;;;7.40;4.80;;;10.40;74.20;;;;;;5399388;26;20011;-61
2024/04/13 02:12:29;;;;;;;5.38;4.50;;;10.40;74.30;;;;;;5400926;26;19995;-62
2024/04/13 02:14:57;;;;;;;5.72;4.40;;;10.40;74.40;;;;;;5400518;26;20011;-62
2024/04/13 02:17:23;;;;;;;8.60;4.35;;;10.40;75.40;;;;;;5403686;26;20004;-62
2024/04/13 02:19:48;;;;;;;4.35;3.95;;;10.30;74.60;;;;;;5402497;26;19996;-61
2024/04/13 02:22:18;;;;;;;5.15;4.55;;;10.40;74.80;;;;;;5405655;26;21741;-63
2024/04/13 02:24:44;;;;;;;6.22;4.50;;;10.30;74.90;;;;;;5403200;26;20402;-61
2024/04/13 02:27:10;;;;;;;5.97;4.38;;;10.20;74.90;;;;;;5402197;26;20069;-63
2024/04/13 02:29:38;;;;;;;6.60;4.47;;;10.30;75.00;;;;;;5395971;26;19995;-62
2024/04/13 02:32:05;;;;;;;5.90;4.30;;;10.20;75.10;;;;;;5405900;26;19991;-62
2024/04/13 02:34:32;;;;;;;6.95;4.40;;;10.20;75.30;;;;;;5403906;26;20008;-62
2024/04/13 02:36:58;;;;;;;7.97;4.68;;;10.20;75.30;;;;;;5401569;26;19997;-60
2024/04/13 02:39:24;;;;;;;5.55;3.95;;;10.20;75.30;;;;;;5406663;26;20002;-63
2024/04/13 02:41:49;;;;;;;6.63;4.45;;;10.20;75.30;;;;;;5407596;26;20011;-62
2024/04/13 02:44:15;;;;;;;6.53;4.28;;;10.10;75.20;;;;;;5399382;26;20020;-61
2024/04/13 02:46:41;;;;;;;7.15;4.90;;;10.10;75.30;;;;;;5406522;26;20358;-62
2024/04/13 02:49:06;;;;;;;6.35;4.60;;;10.10;75.40;;;;;;5401604;26;20455;-61
2024/04/13 02:51:32;;;;;;;6.15;4.35;;;10.10;75.50;;;;;;5401236;26;20000;-63
2024/04/13 02:53:57;;;;;;;6.00;4.40;;;10.20;75.60;;;;;;5399310;26;20098;-61
2024/04/13 02:56:24;;;;;;;5.38;4.28;;;10.10;75.60;;;;;;5403813;26;20007;-63
2024/04/13 02:58:49;;;;;;;5.63;4.57;;;10.10;75.60;;;;;;5396065;26;20007;-62
2024/04/13 03:01:15;;;;;;;6.25;4.97;;;10.10;75.70;;;;;;5402679;26;19999;-62
2024/04/13 03:03:40;;;;;;;5.85;4.68;;;10.00;75.70;;;;;;5396948;26;19995;-62
2024/04/13 03:06:13;;;;;;;5.82;4.80;;;10.00;75.90;;;;;;5404788;26;19999;-63
2024/04/13 03:08:40;;;;;;;6.55;4.45;;;10.00;76.10;;;;;;5397537;26;20026;-63
2024/04/13 03:11:11;;;;;;;5.35;4.70;;;10.00;76.00;;;;;;5397540;26;19995;-63
2024/04/13 03:13:37;;;;;;;5.30;4.75;;;10.00;77.00;;;;;;5389709;26;20368;-62
2024/04/13 03:16:05;;;;;;;5.85;4.60;;;10.00;76.10;;;;;;5391799;26;20011;-62
2024/04/13 03:18:31;;;;;;;5.57;4.90;;;10.00;76.30;;;;;;5399816;26;20009;-62
2024/04/13 03:20:57;;;;;;;6.80;4.75;;;10.00;76.30;;;;;;5403380;26;20421;-63
2024/04/13 03:23:23;;;;;;;5.63;4.82;;;9.90;76.30;;;;;;5398060;26;20008;-62
2024/04/13 03:25:50;;;;;;;8.13;4.88;;;9.90;76.30;;;;;;5392911;26;20020;-60
2024/04/13 03:28:16;;;;;;;7.75;4.70;;;9.90;76.50;;;;;;5399313;26;20030;-63
2024/04/13 03:30:41;;;;;;;7.05;5.20;;;9.90;76.50;;;;;;5399397;26;19992;-62
2024/04/13 03:33:07;;;;;;;6.75;6.00;;;9.90;76.50;;;;;;5405143;26;20020;-62
2024/04/13 03:35:36;;;;;;;9.70;5.90;;;9.90;76.60;;;;;;5405651;26;20064;-62
2024/04/13 03:38:02;;;;;;;6.30;5.68;;;9.90;76.90;;;;;;5408639;26;19996;-62
2024/04/13 03:40:27;;;;;;;10.07;5.65;;;9.80;76.60;;;;;;5399238;26;20521;-62
2024/04/13 03:42:53;;;;;;;8.02;5.82;;;9.80;77.00;;;;;;5402501;26;19996;-62
2024/04/13 03:45:18;;;;;;;6.25;5.40;;;9.80;77.10;;;;;;5391756;26;19990;-62
2024/04/13 03:47:44;;;;;;;6.28;5.05;;;9.80;77.10;;;;;;5398022;26;20004;-62
2024/04/13 03:50:10;;;;;;;9.10;5.20;;;9.80;77.00;;;;;;5399846;26;20443;-63
2024/04/13 03:52:37;;;;;;;7.70;5.07;;;9.80;77.00;;;;;;5399813;26;20561;-62
2024/04/13 03:55:04;;;;;;;5.68;4.63;;;9.80;76.90;;;;;;5403262;26;20000;-62
2024/04/13 03:57:32;;;;;;;6.28;5.25;;;9.80;77.00;;;;;;5407819;26;20003;-60
2024/04/13 03:59:58;;;;;;;7.25;5.10;;;9.80;77.20;;;;;;5395909;26;20365;-61
2024/04/13 04:02:23;;;;;;;7.30;5.63;;;9.80;77.30;;;;;;5402640;26;20064;-59
2024/04/13 04:04:49;;;;;;;5.82;4.78;;;9.70;77.30;;;;;;5395281;26;19997;-61
2024/04/13 04:07:15;;;;;;;6.82;5.38;;;9.70;77.30;;;;;;5404052;26;19995;-61
2024/04/13 04:09:40;;;;;;;5.63;5.13;;;9.70;77.50;;;;;;5399795;26;19996;-61
2024/04/13 04:12:06;;;;;;;6.53;5.03;;;9.60;77.30;;;;;;5397540;26;20011;-63
2024/04/13 04:14:31;;;;;;;7.72;5.35;;;9.60;77.30;;;;;;5402042;26;20004;-62
2024/04/13 04:16:57;;;;;;;7.93;5.25;;;9.60;77.40;;;;;;5395490;26;20006;-61
2024/04/13 04:19:23;;;;;;;8.10;5.68;;;9.60;77.30;;;;;;5401610;26;19995;-62
2024/04/13 04:21:49;;;;;;;8.35;6.20;;;9.60;77.30;;;;;;5402396;26;20069;-59
2024/04/13 04:24:15;;;;;;;8.40;7.20;;;9.50;77.50;;;;;;5395836;26;19991;-60
2024/04/13 04:26:40;;;;;;;7.50;6.68;;;9.50;77.50;;;;;;5401860;26;19999;-62
2024/04/13 04:29:06;;;;;;;8.82;7.50;;;9.50;77.70;;;;;;5396463;26;20036;-62
2024/04/13 04:31:32;;;;;;;9.13;7.50;;;9.50;77.90;;;;;;5407072;26;20006;-62
2024/04/13 04:33:57;;;;;;;11.45;8.48;;;9.50;78.00;;;;;;5401885;26;20383;-60
2024/04/13 04:36:23;;;;;;;9.85;7.80;;;9.40;78.00;;;;;;5401103;26;20331;-62
2024/04/13 04:38:51;;;;;;;13.02;8.63;;;9.40;78.00;;;;;;5392083;26;20004;-59
2024/04/13 04:41:17;;;;;;;18.15;12.60;;;9.40;78.10;;;;;;5394517;26;20007;-63
2024/04/13 04:43:43;;;;;;;21.02;14.38;;;9.40;78.20;;;;;;5400429;26;19995;-62
2024/04/13 04:46:09;;;;;;;19.58;14.27;;;9.40;78.40;;;;;;5402210;26;19992;-63
2024/04/13 04:48:35;;;;;;;17.45;11.93;;;9.40;78.40;;;;;;5399842;26;20015;-61
2024/04/13 04:51:02;;;;;;;14.18;10.05;;;9.40;78.50;;;;;;5403313;26;19991;-62
2024/04/13 04:53:28;;;;;;;12.30;7.70;;;9.40;78.60;;;;;;5399266;26;20003;-62
2024/04/13 04:55:55;;;;;;;16.02;7.93;;;9.30;78.70;;;;;;5400698;26;20023;-63
2024/04/13 04:58:21;;;;;;;8.45;6.82;;;9.30;78.90;;;;;;5402261;26;20014;-63
2024/04/13 05:00:48;;;;;;;10.35;6.93;;;9.30;78.70;;;;;;5399692;26;20335;-63
2024/04/13 05:03:14;;;;;;;7.88;6.80;;;9.40;78.70;;;;;;5405604;26;19996;-61
2024/04/13 05:05:40;;;;;;;8.60;6.47;;;9.40;78.70;;;;;;5403097;26;20579;-61
2024/04/13 05:08:06;;;;;;;9.48;7.07;;;9.40;78.70;;;;;;5397618;26;20100;-61
2024/04/13 05:10:32;;;;;;;13.73;7.28;;;9.50;78.70;;;;;;5405711;26;20004;-61
2024/04/13 05:12:57;;;;;;;8.52;7.20;;;9.50;78.70;;;;;;5393733;26;20027;-62
2024/04/13 05:15:23;;;;;;;7.47;6.68;;;9.50;78.70;;;;;;5396752;26;20004;-62
2024/04/13 05:17:49;;;;;;;12.10;7.53;;;9.50;78.60;;;;;;5391514;26;19996;-62
2024/04/13 05:20:14;;;;;;;8.57;7.10;;;9.50;78.70;;;;;;5389477;26;24029;-61
2024/04/13 05:22:40;;;;;;;8.68;7.00;;;9.50;78.90;;;;;;5394792;26;20012;-62
2024/04/13 05:25:06;;;;;;;13.02;8.05;;;9.50;79.10;;;;;;5397891;26;19996;-62
2024/04/13 05:27:32;;;;;;;11.75;7.57;;;9.50;79.30;;;;;;5394147;26;19995;-63
2024/04/13 05:30:02;;;;;;;9.65;7.60;;;9.60;79.40;;;;;;5394467;26;20008;-62
2024/04/13 05:32:28;;;;;;;9.48;7.43;;;9.60;79.60;;;;;;5394759;26;19999;-62
2024/04/13 05:34:54;;;;;;;11.25;8.38;;;9.70;79.80;;;;;;5398678;26;20003;-62
2024/04/13 05:37:20;;;;;;;11.25;8.43;;;9.70;79.90;;;;;;5395000;26;19996;-62
2024/04/13 05:39:45;;;;;;;12.88;8.13;;;9.80;80.10;;;;;;5386465;26;20008;-62
2024/04/13 05:42:11;;;;;;;11.73;8.57;;;9.80;80.20;;;;;;5404524;26;20034;-61
2024/04/13 05:44:37;;;;;;;10.95;7.88;;;9.80;80.50;;;;;;5392725;26;20017;-63
2024/04/13 05:47:03;;;;;;;12.02;8.65;;;9.80;80.60;;;;;;5406102;26;19995;-62
2024/04/13 05:49:28;;;;;;;12.82;8.60;;;9.90;80.90;;;;;;5397109;26;20014;-62
2024/04/13 05:51:54;;;;;;;12.88;9.10;;;9.90;81.00;;;;;;5394542;26;20000;-62
2024/04/13 05:54:19;;;;;;;11.23;9.02;;;10.00;81.30;;;;;;5388747;26;19996;-63
2024/04/13 05:56:45;;;;;;;13.73;9.45;;;10.00;81.30;;;;;;5397104;26;20468;-63
2024/04/13 05:59:11;;;;;;;11.98;9.13;;;10.00;81.30;;;;;;5379817;26;20011;-63
2024/04/13 06:01:37;;;;;;;10.95;9.27;;;10.10;81.50;;;;;;5395528;26;20003;-63
2024/04/13 06:04:02;;;;;;;14.93;9.77;;;10.10;81.50;;;;;;5403931;26;20014;-61
2024/04/13 06:06:28;;;;;;;12.48;9.25;;;10.20;81.50;;;;;;5391539;26;20004;-63
2024/04/13 06:08:54;;;;;;;12.20;8.82;;;10.20;81.60;;;;;;5392044;26;20000;-63
2024/04/13 06:11:20;;;;;;;11.65;9.48;;;10.30;81.70;;;;;;5399123;26;20014;-63
2024/04/13 06:13:45;;;;;;;14.45;9.52;;;10.30;81.60;;;;;;5394695;26;20000;-63
2024/04/13 06:16:11;;;;;;;13.38;9.43;;;10.50;82.00;;;;;;5398844;26;20008;-62
2024/04/13 06:18:36;;;;;;;12.38;9.45;;;10.50;81.90;;;;;;5401482;26;20041;-63
2024/04/13 06:21:02;;;;;;;12.00;9.38;;;10.60;82.30;;;;;;5398861;26;19999;-62
2024/04/13 06:23:28;;;;;;;17.98;9.25;;;10.70;82.70;;;;;;5401090;26;19995;-62
2024/04/13 06:25:54;;;;;;;13.98;10.43;;;10.70;82.90;;;;;;5403394;26;20021;-63
2024/04/13 06:28:20;;;;;;;16.92;10.95;;;10.70;82.70;;;;;;5402110;26;20008;-62
2024/04/13 06:30:46;;;;;;;18.63;11.63;;;10.80;82.60;;;;;;5399851;26;20447;-63
2024/04/13 06:33:12;;;;;;;20.77;12.05;;;11.00;82.60;;;;;;5406256;26;20043;-62
2024/04/13 06:35:38;;;;;;;14.38;10.70;;;11.00;82.60;;;;;;5404605;26;19997;-63
2024/04/13 06:38:03;;;;;;;15.02;11.20;;;11.10;82.70;;;;;;5395317;26;20405;-61
2024/04/13 06:40:30;;;;;;;18.35;11.63;;;11.20;82.50;;;;;;5405291;26;20007;-62
2024/04/13 06:42:56;;;;;;;14.60;11.25;;;11.30;82.50;;;;;;5399417;26;20015;-62
2024/04/13 06:45:21;;;;;;;17.33;11.57;;;11.50;82.60;;;;;;5409381;26;20431;-63
2024/04/13 06:47:47;;;;;;;17.95;11.02;;;11.50;82.40;;;;;;5400529;26;20015;-63
2024/04/13 06:50:12;;;;;;;14.15;10.88;;;11.60;82.40;;;;;;5404346;26;20008;-63
2024/04/13 06:52:38;;;;;;;14.20;10.75;;;11.70;82.20;;;;;;5405547;26;19995;-63
2024/04/13 06:55:04;;;;;;;15.30;11.30;;;11.80;81.90;;;;;;5402856;26;20069;-63
2024/04/13 06:57:30;;;;;;;21.13;10.95;;;11.90;81.80;;;;;;5402461;26;20424;-62
2024/04/13 06:59:55;;;;;;;16.08;10.77;;;12.00;81.70;;;;;;5399783;26;20011;-62
2024/04/13 07:02:21;;;;;;;14.63;10.32;;;12.10;81.50;;;;;;5400100;26;20016;-63
2024/04/13 07:04:47;;;;;;;16.98;11.25;;;12.20;81.30;;;;;;5407469;26;20003;-62
2024/04/13 07:07:15;;;;;;;16.05;10.70;;;12.30;81.60;;;;;;5396020;26;19999;-62
2024/04/13 07:09:40;;;;;;;13.85;10.77;;;12.40;81.70;;;;;;5398416;26;20068;-63
2024/04/13 07:12:08;;;;;;;13.20;10.52;;;12.50;81.30;;;;;;5407233;26;20046;-63
2024/04/13 07:14:34;;;;;;;14.00;11.13;;;12.60;81.10;;;;;;5395944;26;20332;-63
2024/04/13 07:17:01;;;;;;;14.98;10.63;;;12.70;80.90;;;;;;5404275;26;19999;-63
2024/04/13 07:19:27;;;;;;;12.45;9.82;;;12.80;81.00;;;;;;5396284;26;20015;-62
2024/04/13 07:21:52;;;;;;;13.00;10.55;;;12.90;81.00;;;;;;5397574;26;20713;-63
2024/04/13 07:24:18;;;;;;;12.63;9.95;;;13.00;81.00;;;;;;5387996;26;20023;-63
2024/04/13 07:26:44;;;;;;;16.08;10.60;;;13.10;80.80;;;;;;5406308;26;20064;-63
2024/04/13 07:29:10;;;;;;;13.63;10.90;;;13.20;80.60;;;;;;5405950;26;20367;-62
2024/04/13 07:31:36;;;;;;;14.82;10.70;;;13.40;80.50;;;;;;5389281;26;20011;-62
2024/04/13 07:34:03;;;;;;;15.23;10.20;;;13.40;80.30;;;;;;5400325;26;20455;-63
2024/04/13 07:36:28;;;;;;;13.55;10.45;;;13.60;80.30;;;;;;5390966;26;19992;-63
2024/04/13 07:38:54;;;;;;;11.52;9.90;;;13.70;80.50;;;;;;5414061;26;20012;-63
2024/04/13 07:41:19;;;;;;;13.18;10.40;;;13.80;80.60;;;;;;5391244;26;20455;-62
2024/04/13 07:43:45;;;;;;;11.95;9.98;;;13.90;80.50;;;;;;5389973;26;20000;-62
2024/04/13 07:46:11;;;;;;;12.43;10.38;;;14.00;80.50;;;;;;5402024;26;19995;-62
2024/04/13 07:48:36;;;;;;;15.75;9.88;;;14.10;80.10;;;;;;5392465;26;20011;-63
2024/04/13 07:51:03;;;;;;;14.32;9.70;;;14.20;79.80;;;;;;5398521;26;20008;-63
2024/04/13 07:53:30;;;;;;;14.63;10.00;;;14.30;79.70;;;;;;5402832;26;20031;-63
2024/04/13 07:55:57;;;;;;;14.38;9.70;;;14.40;79.60;;;;;;5405996;26;20008;-62
2024/04/13 07:58:23;;;;;;;11.80;9.70;;;14.50;79.10;;;;;;5392247;26;19999;-62
2024/04/13 08:00:48;;;;;;;10.25;8.45;;;14.70;78.90;;;;;;5396856;26;20295;-62
2024/04/13 08:03:14;;;;;;;10.32;8.50;;;14.70;78.70;;;;;;5410352;26;20071;-63
2024/04/13 08:05:40;;;;;;;12.13;8.20;;;14.90;78.40;;;;;;5396117;26;20003;-63
2024/04/13 08:08:06;;;;;;;12.05;8.40;;;15.00;77.90;;;;;;5393701;26;20493;-63
2024/04/13 08:10:31;;;;;;;12.25;8.43;;;15.00;77.40;;;;;;5403880;26;20000;-63
2024/04/13 08:12:57;;;;;;;8.38;7.47;;;15.10;77.20;;;;;;5397173;26;20084;-62
2024/04/13 08:15:22;;;;;;;13.23;8.52;;;15.20;77.00;;;;;;5398702;26;19995;-63
2024/04/13 08:17:48;;;;;;;11.68;8.45;;;15.30;76.80;;;;;;5394779;26;20356;-63
2024/04/13 08:20:13;;;;;;;12.82;8.07;;;15.40;76.80;;;;;;5403352;26;20003;-64
2024/04/13 08:22:39;;;;;;;12.60;8.45;;;15.50;76.60;;;;;;5394511;26;20596;-63
2024/04/13 08:25:05;;;;;;;13.43;8.73;;;15.60;76.40;;;;;;5394152;26;20073;-62
2024/04/13 08:27:31;;;;;;;15.23;8.85;;;15.60;76.20;;;;;;5407525;26;20344;-63
2024/04/13 08:29:57;;;;;;;11.45;7.65;;;15.70;76.40;;;;;;5404885;26;20003;-63
2024/04/13 08:32:23;;;;;;;10.00;7.70;;;15.80;76.20;;;;;;5393828;26;20368;-64
2024/04/13 08:34:51;;;;;;;11.30;7.45;;;15.90;76.10;;;;;;5411811;26;19991;-63
2024/04/13 08:37:17;;;;;;;9.60;8.02;;;16.00;76.20;;;;;;5392909;26;20011;-64
2024/04/13 08:39:43;;;;;;;11.60;7.88;;;16.10;76.10;;;;;;5391882;26;19999;-64
2024/04/13 08:42:11;;;;;;;12.02;8.00;;;16.30;75.80;;;;;;5404878;26;19996;-64
2024/04/13 08:44:40;;;;;;;15.77;8.23;;;16.40;75.60;;;;;;5403064;26;20469;-63
2024/04/13 08:47:07;;;;;;;13.77;7.72;;;16.50;75.40;;;;;;5391488;26;20019;-62
2024/04/13 08:49:36;;;;;;;11.13;7.88;;;16.60;75.40;;;;;;5391409;26;20000;-62
2024/04/13 08:52:08;;;;;;;11.88;8.02;;;16.70;75.30;;;;;;5392771;26;20076;-63
2024/04/13 08:54:34;;;;;;;9.05;7.50;;;16.80;75.30;;;;;;5393313;26;20448;-63
2024/04/13 08:57:04;;;;;;;11.32;7.63;;;16.90;75.00;;;;;;5388244;26;20381;-63
2024/04/13 08:59:30;;;;;;;11.38;7.75;;;17.10;74.70;;;;;;5399864;26;20012;-63
2024/04/13 09:01:56;;;;;;;8.98;7.53;;;17.20;74.60;;;;;;5397912;26;20472;-63
2024/04/13 09:04:22;;;;;;;13.27;8.43;;;17.30;74.20;;;;;;5410270;26;20022;-62
2024/04/13 09:06:52;;;;;;;9.48;7.55;;;17.40;73.80;;;;;;5410782;26;20076;-63
2024/04/13 09:09:18;;;;;;;10.23;7.45;;;17.50;73.80;;;;;;5399355;26;20007;-63
2024/04/13 09:11:44;;;;;;;9.85;7.32;;;17.60;73.50;;;;;;5406898;26;20015;-63
2024/04/13 09:14:11;;;;;;;7.88;7.00;;;17.70;73.20;;;;;;5401590;26;19995;-63
2024/04/13 09:16:38;;;;;;;10.57;7.28;;;17.80;73.10;;;;;;5402650;26;20419;-62
2024/04/13 09:19:03;;;;;;;11.30;6.78;;;17.90;72.80;;;;;;5416447;26;20125;-62
2024/04/13 09:21:33;;;;;;;9.18;7.15;;;18.10;72.80;;;;;;5412178;26;20003;-60
2024/04/13 09:23:58;;;;;;;8.43;7.00;;;18.20;72.60;;;;;;5410745;26;20085;-61
2024/04/13 09:26:25;;;;;;;13.32;7.57;;;18.30;72.40;;;;;;5403274;26;20003;-63
2024/04/13 09:28:51;;;;;;;9.65;7.03;;;18.40;72.10;;;;;;5399614;26;19996;-62
2024/04/13 09:31:17;;;;;;;8.55;6.88;;;18.60;72.10;;;;;;5410835;26;20351;-62
2024/04/13 09:33:52;;;;;;;9.18;6.88;;;18.70;71.10;;;;;;5406984;26;20608;-63
2024/04/13 09:36:25;;;;;;;9.55;6.78;;;18.80;70.20;;;;;;5407170;26;20003;-61
2024/04/13 09:38:54;;;;;;;11.52;6.78;;;19.00;70.60;;;;;;5410669;26;20043;-62
2024/04/13 09:41:20;;;;;;;7.57;6.07;;;19.10;70.40;;;;;;5400547;26;20447;-62
2024/04/13 09:43:47;;;;;;;9.98;7.43;;;19.20;70.60;;;;;;5402857;26;20018;-60
2024/04/13 09:46:13;;;;;;;6.88;6.18;;;19.30;69.80;;;;;;5405549;26;20128;-62
2024/04/13 09:48:39;;;;;;;6.75;6.05;;;19.40;69.50;;;;;;5411127;26;20000;-62
2024/04/13 09:51:05;;;;;;;7.13;5.72;;;19.60;69.00;;;;;;5416145;26;20346;-62
2024/04/13 09:53:31;;;;;;;6.30;5.05;;;19.70;68.30;;;;;;5412027;26;19999;-62
2024/04/13 09:55:57;;;;;;;7.38;5.25;;;19.80;67.60;;;;;;5404097;26;20008;-61
2024/04/13 09:58:24;;;;;;;12.13;5.20;;;19.90;67.40;;;;;;5404027;26;20407;-62
2024/04/13 10:00:50;;;;;;;10.82;5.60;;;20.10;67.30;;;;;;5390332;26;20014;-62
2024/04/13 10:03:16;;;;;;;10.68;6.60;;;20.20;67.20;;;;;;5395310;26;20015;-61
2024/04/13 10:05:46;;;;;;;7.05;5.22;;;20.30;66.10;;;;;;5408112;26;20011;-61
2024/04/13 10:08:12;;;;;;;7.07;5.18;;;20.40;65.50;;;;;;5408945;26;20682;-62
2024/04/13 10:10:50;;;;;;;6.03;5.40;;;20.50;66.20;;;;;;5406201;26;20351;-63
2024/04/13 10:13:26;;;;;;;4.88;4.38;;;20.60;63.40;;;;;;5408472;26;20010;-62
2024/04/13 10:15:52;;;;;;;5.88;4.15;;;20.60;64.10;;;;;;5410507;26;20448;-62
2024/04/13 10:18:18;;;;;;;6.38;3.55;;;20.80;64.30;;;;;;5404749;26;19996;-60
2024/04/13 10:20:46;;;;;;;7.70;3.28;;;20.90;63.30;;;;;;5407458;26;20007;-60
2024/04/13 10:23:13;;;;;;;4.65;3.20;;;21.00;62.90;;;;;;5414121;26;20447;-63
2024/04/13 10:25:40;;;;;;;5.90;3.00;;;21.10;62.90;;;;;;5403419;26;20000;-62
2024/04/13 10:28:10;;;;;;;3.78;2.85;;;21.20;62.10;;;;;;5406487;26;19996;-63
2024/04/13 10:30:45;;;;;;;3.83;2.90;;;21.40;60.70;;;;;;5403103;26;19995;-62
2024/04/13 10:33:27;;;;;;;4.97;2.90;;;21.50;60.00;;;;;;5406242;26;20374;-62
2024/04/13 10:36:03;;;;;;;7.93;2.70;;;21.60;60.00;;;;;;5407126;26;19995;-63
2024/04/13 10:38:35;;;;;;;4.18;2.67;;;21.60;59.30;;;;;;5406992;26;20007;-61
2024/04/13 10:41:01;;;;;;;2.80;2.30;;;21.70;59.20;;;;;;5405389;26;20011;-63
2024/04/13 10:43:28;;;;;;;4.15;2.60;;;21.80;59.20;;;;;;5409792;26;20475;-63
2024/04/13 10:46:01;;;;;;;2.88;2.40;;;21.90;58.80;;;;;;5404054;26;20447;-61
2024/04/13 10:48:32;;;;;;;9.15;2.40;;;21.90;58.20;;;;;;5380530;26;19995;-61
2024/04/13 10:50:59;;;;;;;3.80;2.58;;;22.00;58.20;;;;;;5396470;26;20042;-61
2024/04/13 10:53:27;;;;;;;2.22;1.98;;;22.10;58.00;;;;;;5409173;26;19999;-61
2024/04/13 10:55:55;;;;;;;2.30;2.10;;;22.10;58.00;;;;;;5395074;26;20018;-63
2024/04/13 10:58:28;;;;;;;8.13;2.67;;;22.20;58.00;;;;;;5400123;26;20340;-62
2024/04/13 11:00:54;;;;;;;6.88;2.50;;;22.30;57.40;;;;;;5400268;26;20351;-62
2024/04/13 11:03:19;;;;;;;3.97;2.75;;;22.30;57.90;;;;;;5383594;26;20048;-62
2024/04/13 11:05:46;;;;;;;5.03;2.67;;;22.40;57.80;;;;;;5408273;26;19999;-63
2024/04/13 11:08:12;;;;;;;4.22;2.50;;;22.50;57.50;;;;;;5399268;26;20066;-62
2024/04/13 11:10:40;;;;;;;4.53;2.67;;;22.60;57.20;;;;;;5408011;26;20072;-62
2024/04/13 11:13:06;;;;;;;3.20;2.42;;;22.60;56.60;;;;;;5398414;26;20004;-63
2024/04/13 11:15:32;;;;;;;4.07;2.45;;;22.80;56.20;;;;;;5407774;26;20010;-61
2024/04/13 11:17:58;;;;;;;7.40;2.50;;;22.80;55.90;;;;;;5410533;26;19999;-62
2024/04/13 11:20:27;;;;;;;4.85;2.30;;;22.90;55.80;;;;;;5413003;26;19999;-63
2024/04/13 11:22:54;;;;;;;3.10;2.05;;;23.00;55.20;;;;;;5407523;26;20426;-62
2024/04/13 11:25:19;;;;;;;2.80;2.38;;;23.10;55.00;;;;;;5397957;26;20011;-63
2024/04/13 11:27:45;;;;;;;5.10;2.60;;;23.20;55.00;;;;;;5403399;26;20367;-63
2024/04/13 11:30:12;;;;;;;2.67;1.98;;;23.30;54.70;;;;;;5409484;26;20035;-63
2024/04/13 11:32:38;;;;;;;4.28;2.20;;;23.30;54.40;;;;;;5408592;26;20422;-64
2024/04/13 11:35:11;;;;;;;2.25;1.83;;;23.40;54.60;;;;;;5409531;26;20007;-61
2024/04/13 11:37:36;;;;;;;2.00;1.65;;;23.40;54.40;;;;;;5391506;26;20004;-63
2024/04/13 11:40:03;;;;;;;4.00;1.95;;;23.50;53.90;;;;;;5409712;26;20040;-61
2024/04/13 11:42:28;;;;;;;3.50;2.17;;;23.60;54.00;;;;;;5401282;26;20021;-63
2024/04/13 11:44:54;;;;;;;3.10;2.00;;;23.60;54.00;;;;;;5407218;26;20007;-62
2024/04/13 11:47:20;;;;;;;2.80;1.80;;;23.70;53.90;;;;;;5410477;26;20007;-61
2024/04/13 11:49:45;;;;;;;4.38;1.95;;;23.80;53.60;;;;;;5408652;26;20011;-63
2024/04/13 11:52:12;;;;;;;3.25;2.10;;;23.90;53.70;;;;;;5407376;26;20421;-63
2024/04/13 11:54:37;;;;;;;3.97;2.00;;;23.90;52.60;;;;;;5396685;26;20011;-64
2024/04/13 11:57:10;;;;;;;3.15;1.70;;;24.00;51.50;;;;;;5403594;26;19996;-63
2024/04/13 11:59:35;;;;;;;2.67;1.52;;;24.00;51.20;;;;;;5401738;26;20000;-63
2024/04/13 12:02:01;;;;;;;2.10;1.40;;;24.10;52.20;;;;;;5397411;26;20081;-63
2024/04/13 12:04:26;;;;;;;2.30;1.10;;;24.10;51.70;;;;;;5405372;26;20456;-62
2024/04/13 12:06:52;;;;;;;2.60;1.83;;;24.10;51.30;;;;;;5412095;26;19999;-62
2024/04/13 12:09:18;;;;;;;1.95;1.65;;;24.20;51.40;;;;;;5412084;26;20071;-63
2024/04/13 12:11:43;;;;;;;3.83;1.73;;;24.30;51.20;;;;;;5402375;26;20376;-63
2024/04/13 12:14:10;;;;;;;2.55;1.10;;;24.30;50.90;;;;;;5386789;26;20408;-61
2024/04/13 12:16:35;;;;;;;2.97;1.70;;;24.30;50.90;;;;;;5407025;26;20004;-62
2024/04/13 12:19:03;;;;;;;3.47;1.15;;;24.40;50.50;;;;;;5409602;26;20022;-62
2024/04/13 12:21:30;;;;;;;3.03;1.20;;;24.40;50.00;;;;;;5401944;26;19999;-64
2024/04/13 12:23:56;;;;;;;1.95;1.10;;;24.40;49.40;;;;;;5402807;26;20003;-63
2024/04/13 12:26:21;;;;;;;6.93;1.15;;;24.50;49.70;;;;;;5408380;26;20477;-63
2024/04/13 12:28:47;;;;;;;1.30;1.02;;;24.50;49.00;;;;;;5409551;26;20057;-63
2024/04/13 12:31:14;;;;;;;2.88;1.02;;;24.60;48.80;;;;;;5409733;26;20327;-64
2024/04/13 12:33:41;;;;;;;1.48;1.30;;;24.60;49.30;;;;;;5409153;26;20068;-62
2024/04/13 12:36:09;;;;;;;5.18;1.58;;;24.70;49.30;;;;;;5395717;26;20374;-62
2024/04/13 12:38:36;;;;;;;4.18;1.45;;;24.70;48.90;;;;;;5406267;26;20004;-62